Time;durP1;ratioP1;P1;durP2;ratioP2;P2;SDS_P1;SDS_P2;PMS_P1;PMS_P2;Temp;Humidity;BMP_temperature;BMP_pressure;BME280_temperature;BME280_humidity;BME280_pressure;Samples;Min_cycle;Max_cycle;Signal;HPM_P1;HPM_P2
2021/12/18 00:02:12;;;;;;;18.20;15.35;;;4.90;99.90;;;;;;5071666;28;20031;-58
2021/12/18 00:04:38;;;;;;;21.83;16.13;;;5.00;99.90;;;;;;5069773;28;20066;-59
2021/12/18 00:07:04;;;;;;;18.20;16.23;;;4.90;99.90;;;;;;5070562;28;20021;-58
2021/12/18 00:09:32;;;;;;;17.63;15.60;;;4.80;99.90;;;;;;5071170;28;20029;-59
2021/12/18 00:11:59;;;;;;;23.23;17.60;;;4.80;99.90;;;;;;5073546;28;20024;-58
2021/12/18 00:14:25;;;;;;;21.95;18.17;;;4.80;99.90;;;;;;5069837;28;20059;-58
2021/12/18 00:16:51;;;;;;;20.88;16.52;;;4.70;99.90;;;;;;5070352;28;20056;-58
2021/12/18 00:19:17;;;;;;;18.00;15.10;;;4.80;99.90;;;;;;5069940;28;20530;-58
2021/12/18 00:21:43;;;;;;;18.10;15.25;;;4.90;99.90;;;;;;5069911;28;20053;-57
2021/12/18 00:24:09;;;;;;;18.80;15.60;;;5.00;99.90;;;;;;5072885;28;20060;-59
2021/12/18 00:26:35;;;;;;;18.55;15.27;;;5.00;99.90;;;;;;5071168;28;20020;-58
2021/12/18 00:29:01;;;;;;;17.80;15.30;;;5.10;99.90;;;;;;5069396;28;20055;-58
2021/12/18 00:31:27;;;;;;;23.45;16.48;;;4.90;99.90;;;;;;5069846;28;20105;-59
2021/12/18 00:33:52;;;;;;;21.20;17.38;;;4.90;99.90;;;;;;5070064;28;20480;-58
2021/12/18 00:36:18;;;;;;;18.45;14.85;;;5.00;99.90;;;;;;5071737;28;20509;-58
2021/12/18 00:38:44;;;;;;;17.63;15.32;;;5.10;99.90;;;;;;5073670;28;20031;-59
2021/12/18 00:41:15;;;;;;;17.58;14.55;;;5.20;99.90;;;;;;5071277;28;20047;-58
2021/12/18 00:44:03;;;;;;;19.73;15.23;;;5.10;99.90;;;;;;5069436;28;20035;-58
2021/12/18 00:46:38;;;;;;;17.17;13.93;;;5.10;99.90;;;;;;5069406;28;20040;-58
2021/12/18 00:49:05;;;;;;;19.05;15.88;;;5.10;99.90;;;;;;5069804;28;20052;-58
2021/12/18 00:51:31;;;;;;;19.00;14.05;;;5.00;99.90;;;;;;5069100;28;20040;-58
2021/12/18 00:53:57;;;;;;;20.40;16.15;;;5.10;99.90;;;;;;5073424;28;20031;-58
2021/12/18 00:56:24;;;;;;;21.70;17.70;;;5.00;99.90;;;;;;5069378;28;20052;-58
2021/12/18 00:58:51;;;;;;;26.73;19.90;;;4.80;99.90;;;;;;5069036;28;20033;-58
2021/12/18 01:01:22;;;;;;;22.77;18.60;;;4.80;99.90;;;;;;5069465;28;20020;-58
2021/12/18 01:03:50;;;;;;;25.85;18.73;;;5.00;99.90;;;;;;5069841;28;20036;-58
2021/12/18 01:06:17;;;;;;;20.55;15.90;;;5.00;99.90;;;;;;5071996;28;20029;-59
2021/12/18 01:08:43;;;;;;;19.88;16.00;;;5.20;99.90;;;;;;5070948;28;20502;-58
2021/12/18 01:11:31;;;;;;;21.10;18.90;;;5.20;99.90;;;;;;5069257;28;20032;-58
2021/12/18 01:24:51;;;;;;;20.50;15.88;;;5.20;99.90;;;;;;5069374;28;20032;-58
2021/12/18 01:27:17;;;;;;;19.67;16.23;;;5.20;99.90;;;;;;5070487;28;20028;-58
2021/12/18 01:29:43;;;;;;;19.98;16.10;;;5.10;99.90;;;;;;5070467;28;20493;-58
2021/12/18 01:32:09;;;;;;;22.77;17.55;;;5.30;99.90;;;;;;5070307;28;20343;-58
2021/12/18 01:34:35;;;;;;;20.83;17.35;;;5.20;99.90;;;;;;5070427;28;20036;-59
2021/12/18 01:37:02;;;;;;;24.52;16.98;;;5.20;99.90;;;;;;5068803;28;20009;-58
2021/12/18 01:39:27;;;;;;;19.27;17.20;;;5.20;99.90;;;;;;5069754;28;20045;-58
2021/12/18 01:53:07;;;;;;;25.10;19.33;;;5.20;99.90;;;;;;5066252;28;20035;-59
2021/12/18 01:55:35;;;;;;;24.83;20.45;;;5.20;99.90;;;;;;5067169;28;20024;-59
2021/12/18 01:58:02;;;;;;;27.92;20.25;;;5.10;99.90;;;;;;5067605;28;20151;-59
2021/12/18 02:00:35;;;;;;;24.25;20.70;;;5.10;99.90;;;;;;5067300;28;20917;-59
2021/12/18 02:03:01;;;;;;;39.40;24.85;;;4.90;99.90;;;;;;5069979;28;20036;-58
2021/12/18 02:05:26;;;;;;;34.67;26.33;;;4.80;99.90;;;;;;5066146;28;20093;-58
2021/12/18 02:07:53;;;;;;;36.17;27.58;;;4.70;99.90;;;;;;5065626;28;20060;-58
2021/12/18 02:10:22;;;;;;;40.00;27.60;;;4.50;99.90;;;;;;5065594;28;20051;-58
2021/12/18 02:13:20;;;;;;;41.28;28.27;;;4.40;99.90;;;;;;5067464;28;20027;-58
2021/12/18 02:21:19;;;;;;;34.97;27.73;;;4.30;99.90;;;;;;5057884;28;20166;-58
2021/12/18 02:23:45;;;;;;;48.45;34.40;;;4.20;99.90;;;;;;5067528;28;20025;-58
2021/12/18 02:26:12;;;;;;;45.10;31.83;;;4.00;99.90;;;;;;5065647;28;20058;-58
2021/12/18 02:28:38;;;;;;;39.17;29.50;;;3.90;99.90;;;;;;5067781;28;20035;-58
2021/12/18 02:31:04;;;;;;;58.00;37.80;;;4.00;99.90;;;;;;5068018;28;20035;-58
2021/12/18 02:33:31;;;;;;;66.47;46.08;;;3.90;99.90;;;;;;5069307;28;20071;-58
2021/12/18 02:35:59;;;;;;;37.50;28.45;;;3.80;99.90;;;;;;5071643;28;20107;-58
2021/12/18 02:38:45;;;;;;;50.42;36.53;;;3.80;99.90;;;;;;5068268;28;20505;-58
2021/12/18 02:41:26;;;;;;;45.83;36.13;;;3.70;99.90;;;;;;5067585;28;20058;-58
2021/12/18 02:43:53;;;;;;;47.03;39.65;;;3.70;99.90;;;;;;5067399;28;20025;-57
2021/12/18 02:46:21;;;;;;;62.20;47.80;;;3.70;99.90;;;;;;5067606;28;20578;-58
2021/12/18 02:48:49;;;;;;;41.75;33.92;;;3.70;99.90;;;;;;5067851;28;20025;-58
2021/12/18 02:51:17;;;;;;;39.08;30.42;;;3.60;99.90;;;;;;5068770;28;20038;-58
2021/12/18 02:53:45;;;;;;;38.35;32.10;;;3.80;99.90;;;;;;5071069;28;20028;-58
2021/12/18 02:56:12;;;;;;;32.72;27.00;;;3.50;99.90;;;;;;5067437;28;20130;-58
2021/12/18 02:58:43;;;;;;;35.60;28.60;;;3.40;99.90;;;;;;5067507;28;20033;-58
2021/12/18 03:01:11;;;;;;;32.38;26.80;;;3.40;99.90;;;;;;5067412;28;20458;-58
2021/12/18 03:03:41;;;;;;;34.75;26.80;;;3.70;99.90;;;;;;5067553;28;20398;-59
2021/12/18 03:24:30;;;;;;;65.97;49.33;;;3.40;99.90;;;;;;5067102;28;20036;-58
2021/12/18 03:26:56;;;;;;;42.53;35.38;;;3.70;99.90;;;;;;5068388;28;20139;-58
2021/12/18 03:29:21;;;;;;;41.30;30.55;;;3.40;99.90;;;;;;5066521;28;20546;-58
2021/12/18 03:31:47;;;;;;;41.58;31.30;;;3.30;99.90;;;;;;5064697;28;20052;-57
2021/12/18 03:34:13;;;;;;;44.38;35.15;;;3.40;99.90;;;;;;5064895;28;20486;-57
2021/12/18 03:36:38;;;;;;;66.85;50.92;;;3.80;99.90;;;;;;5064518;28;20036;-56
2021/12/18 03:39:05;;;;;;;48.10;38.08;;;3.90;99.90;;;;;;5069332;28;20070;-57
2021/12/18 03:41:31;;;;;;;43.55;36.88;;;4.00;99.90;;;;;;5064824;28;20041;-58
2021/12/18 03:43:56;;;;;;;52.72;41.28;;;3.80;99.90;;;;;;5064874;28;20025;-59
2021/12/18 03:46:22;;;;;;;50.40;38.10;;;3.90;99.90;;;;;;5064571;28;20484;-58
2021/12/18 03:48:48;;;;;;;55.78;43.90;;;3.70;99.90;;;;;;5064878;28;20025;-58
2021/12/18 03:51:13;;;;;;;50.45;42.05;;;3.90;99.90;;;;;;5070080;28;20021;-59
2021/12/18 03:53:39;;;;;;;47.15;39.10;;;3.50;99.90;;;;;;5071235;28;20377;-58
2021/12/18 03:56:05;;;;;;;46.75;36.58;;;3.50;99.90;;;;;;5072045;28;20537;-58
2021/12/18 03:58:31;;;;;;;45.92;36.63;;;3.40;99.90;;;;;;5070778;28;20021;-58
2021/12/18 04:00:57;;;;;;;49.47;37.70;;;3.30;99.90;;;;;;5070747;28;20077;-58
2021/12/18 04:03:23;;;;;;;45.60;36.00;;;3.40;99.90;;;;;;5072440;28;20036;-58
2021/12/18 04:05:49;;;;;;;44.83;35.08;;;3.40;99.90;;;;;;5072326;28;20029;-58
2021/12/18 04:08:15;;;;;;;46.83;36.63;;;3.20;99.90;;;;;;5070843;28;20097;-58
2021/12/18 04:10:42;;;;;;;40.80;33.00;;;3.10;99.90;;;;;;5070521;28;20115;-58
2021/12/18 04:13:09;;;;;;;41.65;34.30;;;2.90;99.90;;;;;;5070469;28;20020;-57
2021/12/18 04:15:38;;;;;;;40.33;34.05;;;2.60;99.90;;;;;;5054882;28;20021;-58
2021/12/18 04:18:05;;;;;;;42.85;35.70;;;2.60;99.90;;;;;;5070428;28;20107;-58
2021/12/18 04:20:30;;;;;;;41.63;35.63;;;2.60;99.90;;;;;;5070301;28;20108;-57
2021/12/18 04:22:56;;;;;;;37.45;32.75;;;2.40;99.90;;;;;;5070318;28;20107;-58
2021/12/18 04:25:22;;;;;;;47.83;39.10;;;2.30;99.90;;;;;;5071082;28;20036;-58
2021/12/18 04:27:48;;;;;;;46.65;40.60;;;2.30;99.90;;;;;;5070143;28;20037;-58
2021/12/18 04:30:14;;;;;;;39.20;31.02;;;2.40;99.90;;;;;;5072907;28;20024;-58
2021/12/18 04:32:40;;;;;;;37.88;30.48;;;2.20;99.90;;;;;;5071790;28;20059;-58
2021/12/18 04:35:06;;;;;;;42.78;33.42;;;2.20;99.90;;;;;;5071048;28;20024;-58
2021/12/18 04:37:32;;;;;;;33.95;29.85;;;2.10;99.90;;;;;;5069707;28;20016;-58
2021/12/18 04:39:58;;;;;;;39.53;31.60;;;2.10;99.90;;;;;;5070602;28;20078;-58
2021/12/18 04:42:23;;;;;;;37.42;32.83;;;2.00;99.90;;;;;;5071345;28;20513;-58
2021/12/18 04:44:49;;;;;;;40.63;34.22;;;1.90;99.90;;;;;;5073938;28;20112;-56
2021/12/18 04:47:15;;;;;;;54.97;43.65;;;2.00;99.90;;;;;;5070086;28;20032;-58
2021/12/18 04:49:41;;;;;;;35.70;29.83;;;2.00;99.90;;;;;;5070785;28;20036;-58
2021/12/18 04:52:07;;;;;;;39.15;32.58;;;2.00;99.90;;;;;;5070029;28;20475;-57
2021/12/18 04:54:33;;;;;;;45.28;37.75;;;1.90;99.90;;;;;;5070580;28;20104;-58
2021/12/18 04:56:59;;;;;;;37.03;24.27;;;1.90;99.90;;;;;;5073121;28;20108;-58
2021/12/18 04:59:25;;;;;;;30.98;25.40;;;1.80;99.90;;;;;;5069457;28;20029;-58
2021/12/18 05:01:52;;;;;;;31.35;23.33;;;1.70;99.90;;;;;;5068368;28;20558;-58
2021/12/18 05:04:19;;;;;;;33.63;25.30;;;1.80;99.90;;;;;;5070896;28;20029;-57
2021/12/18 05:06:46;;;;;;;38.58;26.40;;;1.90;99.90;;;;;;5069688;28;20035;-57
2021/12/18 05:09:14;;;;;;;30.17;24.25;;;1.90;99.90;;;;;;5072342;28;20062;-58
2021/12/18 05:11:41;;;;;;;29.65;23.38;;;1.70;99.90;;;;;;5072484;28;20020;-57
2021/12/18 05:14:08;;;;;;;27.60;23.23;;;1.50;99.90;;;;;;5069266;28;20024;-58
2021/12/18 05:16:34;;;;;;;30.15;23.85;;;1.70;99.90;;;;;;5069074;28;20031;-57
2021/12/18 05:19:00;;;;;;;27.05;21.63;;;1.70;99.90;;;;;;5068758;28;20103;-58
2021/12/18 05:21:26;;;;;;;35.38;26.67;;;1.70;99.90;;;;;;5070995;28;20502;-58
2021/12/18 05:23:52;;;;;;;32.58;23.15;;;1.70;99.90;;;;;;5071757;28;20029;-58
2021/12/18 05:26:18;;;;;;;28.83;23.80;;;1.60;99.90;;;;;;5069131;28;20418;-57
2021/12/18 05:28:43;;;;;;;33.33;24.77;;;1.60;99.90;;;;;;5068711;28;20033;-58
2021/12/18 05:31:12;;;;;;;39.00;27.10;;;1.50;99.90;;;;;;5068595;28;20029;-57
2021/12/18 05:33:38;;;;;;;99.78;65.30;;;1.50;99.90;;;;;;5068808;28;20498;-58
2021/12/18 05:36:23;;;;;;;58.97;45.08;;;1.50;99.90;;;;;;5072968;28;20019;-57
2021/12/18 05:38:49;;;;;;;132.05;93.00;;;1.50;99.90;;;;;;5071001;28;20605;-58
2021/12/18 05:41:14;;;;;;;153.40;126.32;;;1.40;99.90;;;;;;5068886;28;20107;-57
2021/12/18 05:43:40;;;;;;;177.68;138.00;;;1.40;99.90;;;;;;5068693;28;20020;-58
2021/12/18 05:46:06;;;;;;;98.85;74.30;;;1.30;99.90;;;;;;5068499;28;20162;-58
2021/12/18 05:48:31;;;;;;;113.75;84.07;;;1.40;99.90;;;;;;5069573;28;20056;-57
2021/12/18 05:50:57;;;;;;;95.28;69.95;;;1.30;99.90;;;;;;5072804;28;20028;-58
2021/12/18 05:53:23;;;;;;;77.70;53.05;;;1.20;99.90;;;;;;5070141;28;20060;-58
2021/12/18 05:55:48;;;;;;;59.42;46.38;;;1.30;99.90;;;;;;5067917;28;20035;-58
2021/12/18 05:58:14;;;;;;;69.63;49.05;;;1.20;99.90;;;;;;5068436;28;20441;-56
2021/12/18 06:00:40;;;;;;;64.70;45.47;;;1.10;99.90;;;;;;5068470;28;20033;-57
2021/12/18 06:03:05;;;;;;;43.95;33.30;;;1.00;99.90;;;;;;5072218;28;20017;-57
2021/12/18 06:05:31;;;;;;;50.63;36.13;;;1.00;99.90;;;;;;5068558;28;20040;-57
2021/12/18 06:07:58;;;;;;;61.72;41.65;;;1.00;99.90;;;;;;5068030;28;20418;-58
2021/12/18 06:10:28;;;;;;;52.75;38.45;;;1.00;99.90;;;;;;5068285;28;20032;-57
2021/12/18 06:12:57;;;;;;;50.70;36.15;;;0.80;99.90;;;;;;5067986;28;20035;-58
2021/12/18 06:15:23;;;;;;;48.90;34.97;;;0.80;99.90;;;;;;5069772;28;20547;-57
2021/12/18 06:17:48;;;;;;;50.80;36.45;;;0.90;99.90;;;;;;5070069;28;20107;-57
2021/12/18 06:20:14;;;;;;;59.92;40.58;;;0.80;99.90;;;;;;5067757;28;20064;-58
2021/12/18 06:22:40;;;;;;;57.63;38.92;;;0.80;99.90;;;;;;5069546;28;20029;-57
2021/12/18 06:25:06;;;;;;;70.30;43.67;;;0.80;99.90;;;;;;5067924;28;20071;-58
2021/12/18 06:27:32;;;;;;;68.50;44.35;;;0.70;99.90;;;;;;5068399;28;20067;-57
2021/12/18 06:29:58;;;;;;;63.38;42.72;;;0.70;99.90;;;;;;5071737;28;20028;-57
2021/12/18 06:32:24;;;;;;;51.50;37.40;;;0.60;99.90;;;;;;5068399;28;20045;-57
2021/12/18 06:34:50;;;;;;;54.78;38.35;;;0.50;99.90;;;;;;5067955;28;20024;-56
2021/12/18 06:37:15;;;;;;;67.82;46.20;;;0.50;99.90;;;;;;5067321;28;20410;-56
2021/12/18 06:39:41;;;;;;;65.10;45.15;;;0.50;99.90;;;;;;5066635;28;20037;-55
2021/12/18 06:42:07;;;;;;;77.50;51.97;;;0.60;99.90;;;;;;5071721;28;20111;-57
2021/12/18 06:44:33;;;;;;;75.72;51.75;;;0.70;99.90;;;;;;5069429;28;20032;-57
2021/12/18 06:46:58;;;;;;;79.00;55.15;;;0.70;99.90;;;;;;5067283;28;20597;-56
2021/12/18 06:49:24;;;;;;;69.00;47.55;;;0.60;99.90;;;;;;5067478;28;20445;-54
2021/12/18 06:51:50;;;;;;;89.78;60.35;;;0.50;99.90;;;;;;5067432;28;20053;-55
2021/12/18 06:54:15;;;;;;;101.80;76.32;;;0.50;99.90;;;;;;5070035;28;20103;-56
2021/12/18 06:56:41;;;;;;;108.55;80.18;;;0.60;99.90;;;;;;5068929;28;20028;-57
2021/12/18 06:59:07;;;;;;;127.03;84.90;;;0.50;99.90;;;;;;5067153;28;20025;-56
2021/12/18 07:01:33;;;;;;;132.65;80.63;;;0.60;99.90;;;;;;5067252;28;20103;-53
2021/12/18 07:03:58;;;;;;;110.43;67.40;;;0.50;99.90;;;;;;5067418;28;20029;-57
2021/12/18 07:06:24;;;;;;;101.50;63.67;;;0.50;99.90;;;;;;5067435;28;20044;-57
2021/12/18 07:08:50;;;;;;;90.20;50.25;;;0.50;99.90;;;;;;5071611;28;20024;-57
2021/12/18 07:11:16;;;;;;;83.80;50.05;;;0.60;99.90;;;;;;5068393;28;20104;-58
2021/12/18 07:13:42;;;;;;;83.63;48.63;;;0.60;99.90;;;;;;5066672;28;20549;-57
2021/12/18 07:16:08;;;;;;;75.80;45.42;;;1.10;99.90;;;;;;5067087;28;20024;-50
2021/12/18 07:18:34;;;;;;;67.57;41.35;;;0.80;99.90;;;;;;5067724;28;20115;-57
2021/12/18 07:20:59;;;;;;;71.82;44.67;;;0.80;99.90;;;;;;5070938;28;20108;-60
2021/12/18 07:23:25;;;;;;;71.75;45.13;;;0.90;99.90;;;;;;5066977;28;20406;-57
2021/12/18 07:25:51;;;;;;;82.15;49.05;;;1.10;99.90;;;;;;5069468;28;20033;-57
2021/12/18 07:28:17;;;;;;;93.97;54.40;;;1.20;99.90;;;;;;5071144;28;20074;-57
2021/12/18 07:30:42;;;;;;;127.65;83.93;;;1.70;99.90;;;;;;5071026;28;20029;-59
2021/12/18 07:33:11;;;;;;;95.65;62.80;;;2.10;99.90;;;;;;5074529;28;20044;-60
2021/12/18 07:35:39;;;;;;;114.65;72.47;;;2.00;99.90;;;;;;5071993;28;20025;-59
2021/12/18 07:38:05;;;;;;;100.60;64.82;;;2.30;99.90;;;;;;5070200;28;20024;-59
2021/12/18 07:40:32;;;;;;;92.20;56.95;;;2.50;99.90;;;;;;5070969;28;20115;-59
2021/12/18 07:42:58;;;;;;;96.10;62.58;;;2.90;99.90;;;;;;5070910;28;20040;-60
2021/12/18 07:45:23;;;;;;;102.75;64.15;;;2.90;99.90;;;;;;5071978;28;20040;-59
2021/12/18 07:47:49;;;;;;;90.57;59.50;;;2.90;99.90;;;;;;5074878;28;20039;-59
2021/12/18 07:50:19;;;;;;;87.30;58.90;;;2.90;99.90;;;;;;5072539;28;20499;-56
2021/12/18 07:52:49;;;;;;;90.97;55.85;;;2.90;99.90;;;;;;5070588;28;20078;-59
2021/12/18 07:55:16;;;;;;;92.72;57.88;;;2.80;99.90;;;;;;5072001;28;20031;-59
2021/12/18 07:57:42;;;;;;;87.88;57.13;;;2.80;99.90;;;;;;5070608;28;20041;-60
2021/12/18 08:00:11;;;;;;;93.30;54.50;;;2.80;99.90;;;;;;5073869;28;20028;-59
2021/12/18 08:02:37;;;;;;;98.15;54.78;;;2.70;99.90;;;;;;5071716;28;20039;-60
2021/12/18 08:05:04;;;;;;;75.60;49.00;;;2.60;99.90;;;;;;5070091;28;20052;-58
2021/12/18 08:07:29;;;;;;;101.68;55.25;;;2.60;99.90;;;;;;5070485;28;20024;-59
2021/12/18 08:09:55;;;;;;;83.05;49.60;;;2.40;99.90;;;;;;5070904;28;20029;-59
2021/12/18 08:12:21;;;;;;;102.55;52.45;;;2.50;99.90;;;;;;5072717;28;20024;-55
2021/12/18 08:14:46;;;;;;;94.20;60.25;;;2.50;99.90;;;;;;5071940;28;20089;-59
2021/12/18 08:17:12;;;;;;;96.75;60.53;;;3.30;99.90;;;;;;5070618;28;20025;-59
2021/12/18 08:19:38;;;;;;;97.97;59.10;;;3.90;99.90;;;;;;5070265;28;20017;-59
2021/12/18 08:22:04;;;;;;;61.55;46.72;;;4.20;99.90;;;;;;5070457;28;20486;-59
2021/12/18 08:24:29;;;;;;;67.35;46.40;;;4.70;99.90;;;;;;5070090;28;20032;-59
2021/12/18 08:26:55;;;;;;;664.67;112.57;;;5.30;99.90;;;;;;5073884;28;20032;-55
2021/12/18 08:29:21;;;;;;;77.43;37.85;;;6.40;99.90;;;;;;5071561;28;20028;-56
2021/12/18 08:31:47;;;;;;;43.97;32.90;;;6.60;99.90;;;;;;5069553;28;20612;-58
2021/12/18 08:34:13;;;;;;;36.03;28.30;;;6.70;99.90;;;;;;5071299;28;20028;-56
2021/12/18 08:36:39;;;;;;;31.08;26.35;;;6.80;99.90;;;;;;5068569;28;20032;-58
2021/12/18 08:39:05;;;;;;;33.50;26.83;;;7.30;99.90;;;;;;5074190;28;20035;-58
2021/12/18 08:41:30;;;;;;;34.88;27.05;;;7.20;99.90;;;;;;5069484;28;20037;-59
2021/12/18 08:43:56;;;;;;;34.30;27.25;;;8.00;99.90;;;;;;5069516;28;20044;-58
2021/12/18 08:46:22;;;;;;;27.52;23.40;;;7.90;99.90;;;;;;5069779;28;20115;-59
2021/12/18 08:48:48;;;;;;;30.70;24.33;;;8.80;99.90;;;;;;5069955;28;20086;-59
2021/12/18 08:51:13;;;;;;;31.15;27.75;;;9.10;99.90;;;;;;5072631;28;20036;-59
2021/12/18 08:53:39;;;;;;;34.80;28.75;;;9.30;99.90;;;;;;5070794;28;20036;-59
2021/12/18 08:56:06;;;;;;;26.48;23.05;;;9.10;99.90;;;;;;5069417;28;20434;-59
2021/12/18 08:58:32;;;;;;;23.38;20.60;;;9.80;99.90;;;;;;5068747;28;20024;-59
2021/12/18 09:00:58;;;;;;;33.42;28.40;;;10.50;99.90;;;;;;5069349;28;20037;-61
2021/12/18 09:03:24;;;;;;;31.90;28.45;;;10.70;99.90;;;;;;5071241;28;20494;-59
2021/12/18 09:05:50;;;;;;;27.10;24.20;;;10.90;99.90;;;;;;5073213;28;20040;-59
2021/12/18 09:08:16;;;;;;;30.50;23.88;;;10.60;99.90;;;;;;5070412;28;20031;-52
2021/12/18 09:10:42;;;;;;;22.88;20.30;;;10.70;99.90;;;;;;5067807;28;20032;-57
2021/12/18 09:13:08;;;;;;;21.58;18.75;;;11.30;99.90;;;;;;5071073;28;20110;-59
2021/12/18 09:15:34;;;;;;;19.65;17.60;;;10.40;99.90;;;;;;5069779;28;20040;-59
2021/12/18 09:17:59;;;;;;;15.55;13.95;;;12.50;99.90;;;;;;5072136;28;20025;-58
2021/12/18 09:20:25;;;;;;;15.32;13.77;;;13.30;99.90;;;;;;5069152;28;20028;-58
2021/12/18 09:22:51;;;;;;;21.90;19.63;;;12.90;99.90;;;;;;5068886;28;20167;-57
2021/12/18 09:25:17;;;;;;;18.73;15.90;;;12.40;99.90;;;;;;5068368;28;20027;-58
2021/12/18 09:27:42;;;;;;;19.05;17.05;;;12.00;99.90;;;;;;5069177;28;20033;-57
2021/12/18 09:30:13;;;;;;;16.70;15.00;;;11.50;99.90;;;;;;5072271;28;20021;-57
2021/12/18 09:32:40;;;;;;;17.23;15.52;;;12.60;99.90;;;;;;5069227;28;20106;-57
2021/12/18 09:35:08;;;;;;;16.70;14.98;;;12.80;99.90;;;;;;5068653;28;20025;-57
2021/12/18 09:37:33;;;;;;;16.08;14.25;;;12.90;99.90;;;;;;5068650;28;20024;-56
2021/12/18 09:39:59;;;;;;;13.60;12.20;;;13.30;99.90;;;;;;5068376;28;20566;-57
2021/12/18 09:42:25;;;;;;;16.23;14.48;;;14.40;99.90;;;;;;5070153;28;20035;-57
2021/12/18 09:44:52;;;;;;;15.40;13.80;;;14.20;99.90;;;;;;5072253;28;20039;-57
2021/12/18 09:47:20;;;;;;;13.13;11.82;;;14.50;99.90;;;;;;5069671;28;20443;-57
2021/12/18 09:49:47;;;;;;;13.68;12.27;;;14.40;99.90;;;;;;5068057;28;20104;-57
2021/12/18 09:52:13;;;;;;;16.48;14.25;;;14.90;99.90;;;;;;5070097;28;20013;-57
2021/12/18 09:54:39;;;;;;;18.50;14.48;;;14.40;99.90;;;;;;5068235;28;20466;-58
2021/12/18 09:57:05;;;;;;;20.10;16.75;;;15.60;99.90;;;;;;5072485;28;20119;-58
2021/12/18 09:59:31;;;;;;;14.73;13.23;;;15.60;99.90;;;;;;5068291;28;20075;-58
2021/12/18 10:01:56;;;;;;;14.73;12.50;;;14.50;99.90;;;;;;5068178;28;20597;-58
2021/12/18 10:04:32;;;;;;;15.27;12.50;;;14.50;99.90;;;;;;5068479;28;20017;-56
2021/12/18 10:07:21;;;;;;;13.43;12.13;;;13.50;99.90;;;;;;5068871;28;20033;-57
2021/12/18 10:09:48;;;;;;;13.35;12.05;;;15.30;99.90;;;;;;5054584;28;20428;-58
2021/12/18 10:12:18;;;;;;;12.38;11.07;;;14.00;99.90;;;;;;5071055;28;20072;-58
2021/12/18 10:15:06;;;;;;;13.07;11.30;;;14.20;99.90;;;;;;5071159;28;20028;-59
2021/12/18 10:17:35;;;;;;;14.32;12.85;;;14.90;99.90;;;;;;5065855;28;20568;-58
2021/12/18 10:20:10;;;;;;;13.88;12.10;;;13.70;99.90;;;;;;5067830;28;20048;-57
2021/12/18 10:22:53;;;;;;;12.85;10.45;;;14.40;99.90;;;;;;5067512;28;20027;-58
2021/12/18 10:25:27;;;;;;;11.63;10.52;;;14.00;99.90;;;;;;5069254;28;20032;-58
2021/12/18 10:28:14;;;;;;;11.93;10.40;;;14.90;99.90;;;;;;5067835;28;20021;-57
2021/12/18 10:30:45;;;;;;;12.10;10.65;;;15.10;99.90;;;;;;5052318;28;20047;-58
2021/12/18 10:33:12;;;;;;;11.20;10.10;;;15.60;99.90;;;;;;5071034;28;20083;-58
2021/12/18 10:35:45;;;;;;;12.57;11.07;;;17.30;99.90;;;;;;5069184;28;20036;-57
2021/12/18 10:38:34;;;;;;;15.25;13.65;;;16.90;99.90;;;;;;5068844;28;20047;-58
2021/12/18 10:41:00;;;;;;;15.73;14.15;;;16.00;99.90;;;;;;5067812;28;20032;-58
2021/12/18 10:43:26;;;;;;;11.50;9.25;;;16.80;99.90;;;;;;5067528;28;20101;-58
2021/12/18 10:45:52;;;;;;;9.95;8.93;;;16.50;99.90;;;;;;5067764;28;20048;-57
2021/12/18 10:48:18;;;;;;;10.77;8.45;;;14.70;99.90;;;;;;5070323;28;20021;-58
2021/12/18 10:50:53;;;;;;;8.95;8.05;;;15.60;99.90;;;;;;5069241;28;20028;-58
2021/12/18 10:53:23;;;;;;;9.52;8.25;;;16.30;99.90;;;;;;5067090;28;20068;-58
2021/12/18 10:55:50;;;;;;;10.43;8.35;;;15.60;99.90;;;;;;5067491;28;20027;-58
2021/12/18 10:58:24;;;;;;;9.18;7.38;;;16.10;99.90;;;;;;5067484;28;20029;-58
2021/12/18 11:00:49;;;;;;;9.00;7.40;;;16.90;99.90;;;;;;5067350;28;20024;-58
2021/12/18 11:03:32;;;;;;;9.13;7.47;;;17.10;99.90;;;;;;5070040;28;20143;-58
2021/12/18 11:06:14;;;;;;;8.10;6.80;;;16.10;99.90;;;;;;5070818;28;20040;-58
2021/12/18 11:09:05;;;;;;;8.00;7.20;;;17.60;99.90;;;;;;5070835;28;20106;-58
2021/12/18 11:14:09;;;;;;;8.15;6.50;;;17.60;99.90;;;;;;5067353;28;20029;-58
2021/12/18 11:16:36;;;;;;;7.55;6.32;;;17.50;99.90;;;;;;5068545;28;20036;-58
2021/12/18 11:19:07;;;;;;;8.25;6.97;;;17.30;99.90;;;;;;5067152;28;20017;-57
2021/12/18 11:21:34;;;;;;;7.60;6.45;;;17.10;99.90;;;;;;5067822;28;20037;-58
2021/12/18 11:24:05;;;;;;;7.43;6.68;;;17.60;99.90;;;;;;5070844;28;20044;-58
2021/12/18 11:26:36;;;;;;;7.78;6.35;;;16.60;99.90;;;;;;5066817;28;20033;-58
2021/12/18 11:29:04;;;;;;;8.48;5.97;;;16.10;99.90;;;;;;5066963;28;20021;-58
2021/12/18 11:31:31;;;;;;;9.13;6.32;;;16.60;99.90;;;;;;5067035;28;20033;-57
2021/12/18 11:33:57;;;;;;;6.55;5.72;;;17.10;99.90;;;;;;5066941;28;20028;-58
2021/12/18 11:36:23;;;;;;;7.25;5.55;;;17.40;99.90;;;;;;5068669;28;20025;-58
2021/12/18 11:38:53;;;;;;;6.70;5.05;;;17.00;99.90;;;;;;5069184;28;20555;-58
2021/12/18 11:41:19;;;;;;;8.93;7.75;;;16.60;99.90;;;;;;5067219;28;20036;-58
2021/12/18 11:43:48;;;;;;;9.80;7.75;;;17.50;99.90;;;;;;5068210;28;20379;-58
2021/12/18 11:46:30;;;;;;;9.55;7.47;;;17.70;99.90;;;;;;5066682;28;20037;-58
2021/12/18 11:49:02;;;;;;;9.10;7.22;;;17.90;99.90;;;;;;5067154;28;20032;-58
2021/12/18 11:51:31;;;;;;;7.70;6.78;;;17.90;99.90;;;;;;5068404;28;20060;-58
2021/12/18 11:53:58;;;;;;;7.90;7.05;;;18.20;99.90;;;;;;5070157;28;20033;-58
2021/12/18 11:56:24;;;;;;;8.30;7.25;;;18.70;99.90;;;;;;5068241;28;20127;-59
2021/12/18 11:58:50;;;;;;;9.57;7.85;;;19.00;99.90;;;;;;5067252;28;20028;-58
2021/12/18 12:01:21;;;;;;;9.68;7.13;;;19.00;99.90;;;;;;5067940;28;20178;-58
2021/12/18 12:03:52;;;;;;;6.10;4.80;;;18.80;99.90;;;;;;5066889;28;20029;-58
2021/12/18 12:06:33;;;;;;;6.30;4.85;;;18.20;99.90;;;;;;5068753;28;20031;-58
2021/12/18 12:11:59;;;;;;;7.35;5.03;;;17.30;99.90;;;;;;5071761;28;20056;-58
2021/12/18 12:14:29;;;;;;;6.88;6.18;;;17.00;99.90;;;;;;5070434;28;20028;-58
2021/12/18 12:17:05;;;;;;;6.07;5.25;;;15.90;99.90;;;;;;5070084;28;20543;-58
2021/12/18 12:19:33;;;;;;;6.75;5.03;;;15.30;99.90;;;;;;5069978;28;20066;-58
2021/12/18 12:22:00;;;;;;;7.18;6.47;;;16.20;99.90;;;;;;5071639;28;20521;-58
2021/12/18 12:24:32;;;;;;;7.15;6.45;;;15.70;99.90;;;;;;5071723;28;20020;-58
2021/12/18 12:27:33;;;;;;;6.28;4.53;;;15.30;99.90;;;;;;5073415;28;20036;-58
2021/12/18 12:30:00;;;;;;;5.75;5.18;;;15.10;99.90;;;;;;5073616;28;20106;-58
2021/12/18 12:32:28;;;;;;;6.65;5.28;;;15.70;99.90;;;;;;5069840;28;20071;-58
2021/12/18 12:35:07;;;;;;;5.72;4.43;;;15.90;99.90;;;;;;5071106;28;20032;-58
2021/12/18 12:37:38;;;;;;;4.50;4.05;;;15.40;99.90;;;;;;5069980;28;20036;-58
2021/12/18 12:40:16;;;;;;;4.63;4.15;;;15.90;99.90;;;;;;5071266;28;20024;-58
2021/12/18 12:43:14;;;;;;;6.68;4.22;;;16.60;99.90;;;;;;5054782;28;20574;-58
2021/12/18 12:45:42;;;;;;;6.22;4.88;;;14.90;99.90;;;;;;5054221;28;20234;-58
2021/12/18 12:48:08;;;;;;;4.40;3.80;;;15.80;99.90;;;;;;5073326;28;20395;-58
2021/12/18 12:50:34;;;;;;;5.35;4.85;;;14.90;99.90;;;;;;5071853;28;20029;-58
2021/12/18 12:53:09;;;;;;;6.43;4.50;;;14.50;99.90;;;;;;5069551;28;20031;-58
2021/12/18 12:55:47;;;;;;;6.00;4.53;;;14.60;99.90;;;;;;5069695;28;20541;-59
2021/12/18 12:58:24;;;;;;;7.15;5.20;;;14.40;99.90;;;;;;5069585;28;20033;-58
2021/12/18 13:00:53;;;;;;;9.15;6.63;;;14.70;99.90;;;;;;5071024;28;20028;-58
2021/12/18 13:03:22;;;;;;;5.70;4.07;;;15.00;99.90;;;;;;5071805;28;20021;-58
2021/12/18 13:05:54;;;;;;;7.03;4.85;;;14.80;99.90;;;;;;5071470;28;20547;-57
2021/12/18 13:08:22;;;;;;;5.55;4.95;;;14.60;99.90;;;;;;5069160;28;20411;-58
2021/12/18 13:10:51;;;;;;;7.05;5.95;;;14.60;99.90;;;;;;5069302;28;20035;-58
2021/12/18 13:13:19;;;;;;;7.05;5.20;;;14.80;99.90;;;;;;5070397;28;20052;-58
2021/12/18 13:16:01;;;;;;;6.85;5.70;;;15.20;99.90;;;;;;5069155;28;20523;-58
2021/12/18 13:18:41;;;;;;;6.57;5.65;;;14.60;99.90;;;;;;5070727;28;20035;-58
2021/12/18 13:21:26;;;;;;;8.10;6.80;;;14.40;99.90;;;;;;5069437;28;20039;-57
2021/12/18 13:23:53;;;;;;;5.55;4.60;;;14.70;99.90;;;;;;5070659;28;20491;-58
2021/12/18 13:26:35;;;;;;;6.72;4.70;;;15.00;99.90;;;;;;5068719;28;20025;-58
2021/12/18 13:29:03;;;;;;;6.05;4.88;;;14.50;99.90;;;;;;5070270;28;20036;-57
2021/12/18 13:31:34;;;;;;;5.72;5.05;;;14.40;99.90;;;;;;5068513;28;20505;-58
2021/12/18 13:34:06;;;;;;;5.75;4.95;;;14.10;99.90;;;;;;5069349;28;20081;-58
2021/12/18 13:36:36;;;;;;;5.32;4.47;;;14.50;99.90;;;;;;5069596;28;20116;-58